sensor_id;sensor_type;location;lat;lon;timestamp;P1;durP1;ratioP1;P2;durP2;ratioP2
80136;SDS011;69466;55.948;37.484;2023-07-20T00:02:09;6.55;;;1.20;;
80136;SDS011;69466;55.948;37.484;2023-07-20T00:04:35;3.70;;;1.30;;
80136;SDS011;69466;55.948;37.484;2023-07-20T00:07:01;6.82;;;1.83;;
80136;SDS011;69466;55.948;37.484;2023-07-20T00:09:27;5.63;;;1.33;;
80136;SDS011;69466;55.948;37.484;2023-07-20T00:11:53;5.63;;;1.42;;
80136;SDS011;69466;55.948;37.484;2023-07-20T00:14:19;5.95;;;1.80;;
80136;SDS011;69466;55.948;37.484;2023-07-20T00:16:47;4.00;;;1.65;;
80136;SDS011;69466;55.948;37.484;2023-07-20T00:19:25;6.05;;;1.42;;
80136;SDS011;69466;55.948;37.484;2023-07-20T00:21:53;4.50;;;1.13;;
80136;SDS011;69466;55.948;37.484;2023-07-20T00:24:23;4.53;;;1.35;;
80136;SDS011;69466;55.948;37.484;2023-07-20T00:26:49;4.47;;;1.85;;
80136;SDS011;69466;55.948;37.484;2023-07-20T00:29:15;6.40;;;1.40;;
80136;SDS011;69466;55.948;37.484;2023-07-20T00:31:41;3.88;;;1.30;;
80136;SDS011;69466;55.948;37.484;2023-07-20T00:34:09;3.97;;;1.23;;
80136;SDS011;69466;55.948;37.484;2023-07-20T00:36:35;4.22;;;1.30;;
80136;SDS011;69466;55.948;37.484;2023-07-20T00:39:02;5.13;;;1.45;;
80136;SDS011;69466;55.948;37.484;2023-07-20T00:41:29;3.50;;;1.10;;
80136;SDS011;69466;55.948;37.484;2023-07-20T00:43:56;5.35;;;1.42;;
80136;SDS011;69466;55.948;37.484;2023-07-20T00:46:22;3.80;;;1.38;;
80136;SDS011;69466;55.948;37.484;2023-07-20T00:48:51;4.70;;;1.60;;
80136;SDS011;69466;55.948;37.484;2023-07-20T00:51:20;5.07;;;1.45;;
80136;SDS011;69466;55.948;37.484;2023-07-20T00:53:47;4.50;;;1.27;;
80136;SDS011;69466;55.948;37.484;2023-07-20T00:56:15;5.13;;;1.52;;
80136;SDS011;69466;55.948;37.484;2023-07-20T00:58:42;5.35;;;2.10;;
80136;SDS011;69466;55.948;37.484;2023-07-20T01:01:09;4.95;;;1.23;;
80136;SDS011;69466;55.948;37.484;2023-07-20T01:03:36;4.25;;;1.40;;
80136;SDS011;69466;55.948;37.484;2023-07-20T01:14:06;4.63;;;1.80;;
80136;SDS011;69466;55.948;37.484;2023-07-20T01:16:33;3.28;;;1.30;;
80136;SDS011;69466;55.948;37.484;2023-07-20T01:18:59;3.95;;;1.50;;
80136;SDS011;69466;55.948;37.484;2023-07-20T01:21:34;3.17;;;1.30;;
80136;SDS011;69466;55.948;37.484;2023-07-20T01:32:46;2.88;;;1.13;;
80136;SDS011;69466;55.948;37.484;2023-07-20T01:35:14;3.10;;;1.33;;
80136;SDS011;69466;55.948;37.484;2023-07-20T01:37:42;3.60;;;1.17;;
80136;SDS011;69466;55.948;37.484;2023-07-20T01:40:10;4.93;;;1.35;;
80136;SDS011;69466;55.948;37.484;2023-07-20T01:42:36;3.22;;;1.20;;
80136;SDS011;69466;55.948;37.484;2023-07-20T01:45:02;3.22;;;1.25;;
80136;SDS011;69466;55.948;37.484;2023-07-20T01:47:31;4.35;;;1.55;;
80136;SDS011;69466;55.948;37.484;2023-07-20T01:49:57;4.30;;;1.50;;
80136;SDS011;69466;55.948;37.484;2023-07-20T01:52:23;6.13;;;1.27;;
80136;SDS011;69466;55.948;37.484;2023-07-20T01:54:50;4.75;;;1.45;;
80136;SDS011;69466;55.948;37.484;2023-07-20T01:57:15;3.40;;;1.40;;
80136;SDS011;69466;55.948;37.484;2023-07-20T01:59:42;4.50;;;1.20;;
80136;SDS011;69466;55.948;37.484;2023-07-20T02:02:08;4.13;;;1.33;;
80136;SDS011;69466;55.948;37.484;2023-07-20T02:04:34;4.43;;;1.40;;
80136;SDS011;69466;55.948;37.484;2023-07-20T02:07:00;4.32;;;1.02;;
80136;SDS011;69466;55.948;37.484;2023-07-20T02:09:26;3.03;;;1.15;;
80136;SDS011;69466;55.948;37.484;2023-07-20T02:11:52;4.03;;;1.45;;
80136;SDS011;69466;55.948;37.484;2023-07-20T02:14:20;5.00;;;1.52;;
80136;SDS011;69466;55.948;37.484;2023-07-20T02:16:48;3.53;;;1.30;;
80136;SDS011;69466;55.948;37.484;2023-07-20T02:19:20;3.45;;;1.25;;
80136;SDS011;69466;55.948;37.484;2023-07-20T02:21:46;6.38;;;1.40;;
80136;SDS011;69466;55.948;37.484;2023-07-20T02:24:12;4.38;;;1.35;;
80136;SDS011;69466;55.948;37.484;2023-07-20T02:26:38;2.95;;;1.30;;
80136;SDS011;69466;55.948;37.484;2023-07-20T02:29:04;3.65;;;1.40;;
80136;SDS011;69466;55.948;37.484;2023-07-20T02:31:30;4.70;;;1.30;;
80136;SDS011;69466;55.948;37.484;2023-07-20T02:33:56;5.05;;;1.40;;
80136;SDS011;69466;55.948;37.484;2023-07-20T02:36:22;3.05;;;1.17;;
80136;SDS011;69466;55.948;37.484;2023-07-20T02:38:48;3.45;;;1.20;;
80136;SDS011;69466;55.948;37.484;2023-07-20T02:41:14;2.30;;;0.98;;
80136;SDS011;69466;55.948;37.484;2023-07-20T02:43:39;5.82;;;1.58;;
80136;SDS011;69466;55.948;37.484;2023-07-20T02:46:05;4.57;;;1.38;;
80136;SDS011;69466;55.948;37.484;2023-07-20T02:48:32;5.82;;;1.40;;
80136;SDS011;69466;55.948;37.484;2023-07-20T02:50:58;4.85;;;1.20;;
80136;SDS011;69466;55.948;37.484;2023-07-20T02:53:23;3.90;;;1.05;;
80136;SDS011;69466;55.948;37.484;2023-07-20T02:55:49;2.97;;;1.10;;
80136;SDS011;69466;55.948;37.484;2023-07-20T02:58:15;3.50;;;0.90;;
80136;SDS011;69466;55.948;37.484;2023-07-20T03:00:42;2.45;;;0.85;;
80136;SDS011;69466;55.948;37.484;2023-07-20T03:03:08;2.58;;;0.90;;
80136;SDS011;69466;55.948;37.484;2023-07-20T03:05:35;2.78;;;0.80;;
80136;SDS011;69466;55.948;37.484;2023-07-20T03:08:05;2.38;;;1.05;;
80136;SDS011;69466;55.948;37.484;2023-07-20T03:10:32;2.05;;;0.75;;
80136;SDS011;69466;55.948;37.484;2023-07-20T03:12:58;1.60;;;0.60;;
80136;SDS011;69466;55.948;37.484;2023-07-20T03:15:24;3.78;;;0.93;;
80136;SDS011;69466;55.948;37.484;2023-07-20T03:17:50;2.65;;;0.90;;
80136;SDS011;69466;55.948;37.484;2023-07-20T03:20:17;2.65;;;0.88;;
80136;SDS011;69466;55.948;37.484;2023-07-20T03:22:43;4.45;;;0.70;;
80136;SDS011;69466;55.948;37.484;2023-07-20T03:25:09;4.05;;;0.98;;
80136;SDS011;69466;55.948;37.484;2023-07-20T03:27:35;2.53;;;0.60;;
80136;SDS011;69466;55.948;37.484;2023-07-20T03:30:01;5.03;;;1.10;;
80136;SDS011;69466;55.948;37.484;2023-07-20T03:32:32;2.25;;;0.80;;
80136;SDS011;69466;55.948;37.484;2023-07-20T03:34:58;3.38;;;1.00;;
80136;SDS011;69466;55.948;37.484;2023-07-20T03:37:24;4.72;;;0.90;;
80136;SDS011;69466;55.948;37.484;2023-07-20T03:39:49;4.68;;;0.90;;
80136;SDS011;69466;55.948;37.484;2023-07-20T03:42:16;3.30;;;0.80;;
80136;SDS011;69466;55.948;37.484;2023-07-20T03:44:41;3.53;;;1.00;;
80136;SDS011;69466;55.948;37.484;2023-07-20T03:47:07;1.90;;;0.60;;
80136;SDS011;69466;55.948;37.484;2023-07-20T03:49:34;13.27;;;1.52;;
80136;SDS011;69466;55.948;37.484;2023-07-20T03:52:00;4.47;;;0.90;;
80136;SDS011;69466;55.948;37.484;2023-07-20T03:54:29;4.25;;;0.80;;
80136;SDS011;69466;55.948;37.484;2023-07-20T03:56:54;3.83;;;0.77;;
80136;SDS011;69466;55.948;37.484;2023-07-20T03:59:20;3.53;;;0.90;;
80136;SDS011;69466;55.948;37.484;2023-07-20T04:01:46;3.53;;;1.05;;
80136;SDS011;69466;55.948;37.484;2023-07-20T04:04:13;2.65;;;0.70;;
80136;SDS011;69466;55.948;37.484;2023-07-20T04:06:41;3.53;;;1.20;;
80136;SDS011;69466;55.948;37.484;2023-07-20T04:09:10;3.85;;;0.75;;
80136;SDS011;69466;55.948;37.484;2023-07-20T04:11:37;2.65;;;0.77;;
80136;SDS011;69466;55.948;37.484;2023-07-20T04:14:03;3.35;;;0.70;;
80136;SDS011;69466;55.948;37.484;2023-07-20T04:16:29;3.78;;;0.70;;
80136;SDS011;69466;55.948;37.484;2023-07-20T04:18:56;3.10;;;0.57;;
80136;SDS011;69466;55.948;37.484;2023-07-20T04:21:22;2.58;;;0.80;;
80136;SDS011;69466;55.948;37.484;2023-07-20T04:23:49;3.47;;;1.40;;
80136;SDS011;69466;55.948;37.484;2023-07-20T04:26:15;4.68;;;1.10;;
80136;SDS011;69466;55.948;37.484;2023-07-20T04:28:41;2.72;;;0.80;;
80136;SDS011;69466;55.948;37.484;2023-07-20T04:31:16;4.07;;;0.77;;
80136;SDS011;69466;55.948;37.484;2023-07-20T04:33:44;5.88;;;0.80;;
80136;SDS011;69466;55.948;37.484;2023-07-20T04:36:10;3.13;;;1.08;;
80136;SDS011;69466;55.948;37.484;2023-07-20T04:38:36;4.38;;;1.35;;
80136;SDS011;69466;55.948;37.484;2023-07-20T04:41:10;3.88;;;0.70;;
80136;SDS011;69466;55.948;37.484;2023-07-20T04:43:41;3.63;;;0.82;;
80136;SDS011;69466;55.948;37.484;2023-07-20T04:46:13;2.17;;;0.65;;
80136;SDS011;69466;55.948;37.484;2023-07-20T04:48:40;2.42;;;0.70;;
80136;SDS011;69466;55.948;37.484;2023-07-20T04:51:06;5.75;;;1.30;;
80136;SDS011;69466;55.948;37.484;2023-07-20T04:53:32;3.25;;;0.73;;
80136;SDS011;69466;55.948;37.484;2023-07-20T04:55:58;3.50;;;1.00;;
80136;SDS011;69466;55.948;37.484;2023-07-20T04:58:24;2.35;;;0.82;;
80136;SDS011;69466;55.948;37.484;2023-07-20T05:00:52;2.67;;;0.70;;
80136;SDS011;69466;55.948;37.484;2023-07-20T05:03:18;3.47;;;0.60;;
80136;SDS011;69466;55.948;37.484;2023-07-20T05:05:46;2.60;;;0.63;;
80136;SDS011;69466;55.948;37.484;2023-07-20T05:08:12;3.70;;;0.98;;
80136;SDS011;69466;55.948;37.484;2023-07-20T05:10:38;3.95;;;1.20;;
80136;SDS011;69466;55.948;37.484;2023-07-20T05:13:04;2.67;;;0.75;;
80136;SDS011;69466;55.948;37.484;2023-07-20T05:15:30;3.88;;;0.70;;
80136;SDS011;69466;55.948;37.484;2023-07-20T05:17:59;3.55;;;1.08;;
80136;SDS011;69466;55.948;37.484;2023-07-20T05:20:25;3.13;;;0.93;;
80136;SDS011;69466;55.948;37.484;2023-07-20T05:22:51;2.20;;;0.70;;
80136;SDS011;69466;55.948;37.484;2023-07-20T05:25:18;1.95;;;0.68;;
80136;SDS011;69466;55.948;37.484;2023-07-20T05:27:44;4.35;;;0.90;;
80136;SDS011;69466;55.948;37.484;2023-07-20T05:30:11;2.58;;;0.65;;
80136;SDS011;69466;55.948;37.484;2023-07-20T05:32:37;4.00;;;0.85;;
80136;SDS011;69466;55.948;37.484;2023-07-20T05:35:03;2.63;;;0.70;;
80136;SDS011;69466;55.948;37.484;2023-07-20T05:37:30;5.13;;;0.98;;
80136;SDS011;69466;55.948;37.484;2023-07-20T05:39:57;2.08;;;0.70;;
80136;SDS011;69466;55.948;37.484;2023-07-20T05:42:24;2.85;;;0.70;;
80136;SDS011;69466;55.948;37.484;2023-07-20T05:44:49;6.38;;;1.20;;
80136;SDS011;69466;55.948;37.484;2023-07-20T05:47:18;6.53;;;0.75;;
80136;SDS011;69466;55.948;37.484;2023-07-20T05:49:44;3.25;;;0.70;;
80136;SDS011;69466;55.948;37.484;2023-07-20T05:52:10;1.63;;;0.50;;
80136;SDS011;69466;55.948;37.484;2023-07-20T05:54:35;4.35;;;1.10;;
80136;SDS011;69466;55.948;37.484;2023-07-20T05:57:02;2.60;;;0.73;;
80136;SDS011;69466;55.948;37.484;2023-07-20T05:59:28;2.38;;;0.68;;
80136;SDS011;69466;55.948;37.484;2023-07-20T06:01:55;3.95;;;1.10;;
80136;SDS011;69466;55.948;37.484;2023-07-20T06:04:20;6.78;;;0.80;;
80136;SDS011;69466;55.948;37.484;2023-07-20T06:06:46;4.85;;;0.88;;
80136;SDS011;69466;55.948;37.484;2023-07-20T06:09:13;2.63;;;0.80;;
80136;SDS011;69466;55.948;37.484;2023-07-20T06:11:39;4.28;;;0.77;;
80136;SDS011;69466;55.948;37.484;2023-07-20T06:14:05;4.38;;;0.95;;
80136;SDS011;69466;55.948;37.484;2023-07-20T06:16:31;2.75;;;0.80;;
80136;SDS011;69466;55.948;37.484;2023-07-20T06:18:58;1.50;;;0.40;;
80136;SDS011;69466;55.948;37.484;2023-07-20T06:21:25;2.55;;;0.57;;
80136;SDS011;69466;55.948;37.484;2023-07-20T06:23:51;3.28;;;0.70;;
80136;SDS011;69466;55.948;37.484;2023-07-20T06:26:16;3.58;;;0.60;;
80136;SDS011;69466;55.948;37.484;2023-07-20T06:28:42;2.45;;;0.50;;
80136;SDS011;69466;55.948;37.484;2023-07-20T06:31:09;3.05;;;0.80;;
80136;SDS011;69466;55.948;37.484;2023-07-20T06:33:35;2.38;;;0.70;;
80136;SDS011;69466;55.948;37.484;2023-07-20T06:36:01;2.15;;;0.63;;
80136;SDS011;69466;55.948;37.484;2023-07-20T06:38:27;3.03;;;0.80;;
80136;SDS011;69466;55.948;37.484;2023-07-20T06:40:54;3.63;;;0.77;;
80136;SDS011;69466;55.948;37.484;2023-07-20T06:43:20;2.88;;;0.80;;
80136;SDS011;69466;55.948;37.484;2023-07-20T06:45:51;5.15;;;1.42;;
80136;SDS011;69466;55.948;37.484;2023-07-20T06:48:20;1.98;;;0.52;;
80136;SDS011;69466;55.948;37.484;2023-07-20T06:50:49;5.10;;;1.00;;
80136;SDS011;69466;55.948;37.484;2023-07-20T06:53:15;6.60;;;0.75;;
80136;SDS011;69466;55.948;37.484;2023-07-20T06:55:44;2.65;;;0.80;;
80136;SDS011;69466;55.948;37.484;2023-07-20T06:58:11;1.95;;;0.60;;
80136;SDS011;69466;55.948;37.484;2023-07-20T07:00:37;5.90;;;1.13;;
80136;SDS011;69466;55.948;37.484;2023-07-20T07:03:03;5.15;;;0.60;;
80136;SDS011;69466;55.948;37.484;2023-07-20T07:05:29;4.10;;;0.60;;
80136;SDS011;69466;55.948;37.484;2023-07-20T07:07:55;2.28;;;0.50;;
80136;SDS011;69466;55.948;37.484;2023-07-20T07:10:21;2.28;;;0.47;;
80136;SDS011;69466;55.948;37.484;2023-07-20T07:12:47;2.85;;;0.73;;
80136;SDS011;69466;55.948;37.484;2023-07-20T07:15:13;1.58;;;0.40;;
80136;SDS011;69466;55.948;37.484;2023-07-20T07:17:39;2.08;;;0.57;;
80136;SDS011;69466;55.948;37.484;2023-07-20T07:20:05;2.30;;;0.60;;
80136;SDS011;69466;55.948;37.484;2023-07-20T07:22:33;2.47;;;0.60;;
80136;SDS011;69466;55.948;37.484;2023-07-20T07:24:59;3.20;;;0.50;;
80136;SDS011;69466;55.948;37.484;2023-07-20T07:27:25;1.90;;;0.50;;
80136;SDS011;69466;55.948;37.484;2023-07-20T07:29:51;2.75;;;0.40;;
80136;SDS011;69466;55.948;37.484;2023-07-20T07:32:17;3.50;;;0.60;;
80136;SDS011;69466;55.948;37.484;2023-07-20T07:34:45;3.55;;;0.55;;
80136;SDS011;69466;55.948;37.484;2023-07-20T07:37:15;2.38;;;0.45;;
80136;SDS011;69466;55.948;37.484;2023-07-20T07:39:42;2.85;;;0.63;;
80136;SDS011;69466;55.948;37.484;2023-07-20T07:42:08;2.45;;;0.60;;
80136;SDS011;69466;55.948;37.484;2023-07-20T07:44:35;3.15;;;0.50;;
80136;SDS011;69466;55.948;37.484;2023-07-20T07:47:02;3.70;;;0.50;;
80136;SDS011;69466;55.948;37.484;2023-07-20T07:49:27;7.20;;;0.90;;
80136;SDS011;69466;55.948;37.484;2023-07-20T07:51:56;2.38;;;0.63;;
80136;SDS011;69466;55.948;37.484;2023-07-20T07:54:22;5.18;;;0.70;;
80136;SDS011;69466;55.948;37.484;2023-07-20T07:56:48;5.03;;;0.90;;
80136;SDS011;69466;55.948;37.484;2023-07-20T07:59:14;2.47;;;0.70;;
80136;SDS011;69466;55.948;37.484;2023-07-20T08:01:40;5.68;;;0.55;;
80136;SDS011;69466;55.948;37.484;2023-07-20T08:04:06;2.78;;;0.80;;
80136;SDS011;69466;55.948;37.484;2023-07-20T08:06:33;3.45;;;0.77;;
80136;SDS011;69466;55.948;37.484;2023-07-20T08:08:59;3.20;;;0.73;;
80136;SDS011;69466;55.948;37.484;2023-07-20T08:11:25;4.10;;;0.90;;
80136;SDS011;69466;55.948;37.484;2023-07-20T08:13:51;9.25;;;1.45;;
80136;SDS011;69466;55.948;37.484;2023-07-20T08:16:18;2.15;;;0.45;;
80136;SDS011;69466;55.948;37.484;2023-07-20T08:18:44;4.60;;;0.98;;
80136;SDS011;69466;55.948;37.484;2023-07-20T08:21:10;6.15;;;0.82;;
80136;SDS011;69466;55.948;37.484;2023-07-20T08:23:36;1.92;;;0.60;;
80136;SDS011;69466;55.948;37.484;2023-07-20T08:26:03;2.95;;;0.60;;
80136;SDS011;69466;55.948;37.484;2023-07-20T08:28:29;3.05;;;1.00;;
80136;SDS011;69466;55.948;37.484;2023-07-20T08:30:55;1.95;;;0.68;;
80136;SDS011;69466;55.948;37.484;2023-07-20T08:33:21;3.50;;;0.90;;
80136;SDS011;69466;55.948;37.484;2023-07-20T08:35:48;4.43;;;0.98;;
80136;SDS011;69466;55.948;37.484;2023-07-20T08:38:14;4.15;;;0.90;;
80136;SDS011;69466;55.948;37.484;2023-07-20T08:40:44;2.33;;;0.80;;
80136;SDS011;69466;55.948;37.484;2023-07-20T08:43:11;2.85;;;0.73;;
80136;SDS011;69466;55.948;37.484;2023-07-20T08:45:39;5.55;;;1.00;;
80136;SDS011;69466;55.948;37.484;2023-07-20T08:48:06;5.50;;;1.00;;
80136;SDS011;69466;55.948;37.484;2023-07-20T08:50:34;4.43;;;0.98;;
80136;SDS011;69466;55.948;37.484;2023-07-20T08:53:00;2.72;;;0.70;;
80136;SDS011;69466;55.948;37.484;2023-07-20T08:55:27;3.25;;;0.80;;
80136;SDS011;69466;55.948;37.484;2023-07-20T08:57:54;2.80;;;0.90;;
80136;SDS011;69466;55.948;37.484;2023-07-20T09:00:21;3.72;;;0.82;;
80136;SDS011;69466;55.948;37.484;2023-07-20T09:02:50;3.72;;;0.88;;
80136;SDS011;69466;55.948;37.484;2023-07-20T09:05:17;4.72;;;0.90;;
80136;SDS011;69466;55.948;37.484;2023-07-20T09:07:44;4.07;;;0.90;;
80136;SDS011;69466;55.948;37.484;2023-07-20T09:10:10;4.80;;;1.10;;
80136;SDS011;69466;55.948;37.484;2023-07-20T09:12:40;2.88;;;0.70;;
80136;SDS011;69466;55.948;37.484;2023-07-20T09:15:07;6.38;;;1.05;;
80136;SDS011;69466;55.948;37.484;2023-07-20T09:17:34;2.80;;;1.05;;
80136;SDS011;69466;55.948;37.484;2023-07-20T09:20:02;3.75;;;1.00;;
80136;SDS011;69466;55.948;37.484;2023-07-20T09:22:33;4.72;;;1.17;;
80136;SDS011;69466;55.948;37.484;2023-07-20T09:25:00;4.78;;;0.80;;
80136;SDS011;69466;55.948;37.484;2023-07-20T09:27:35;2.67;;;0.75;;
80136;SDS011;69466;55.948;37.484;2023-07-20T09:30:04;3.70;;;1.00;;
80136;SDS011;69466;55.948;37.484;2023-07-20T09:32:37;2.60;;;0.80;;
80136;SDS011;69466;55.948;37.484;2023-07-20T09:35:13;6.28;;;0.80;;
80136;SDS011;69466;55.948;37.484;2023-07-20T09:37:42;2.60;;;0.77;;
80136;SDS011;69466;55.948;37.484;2023-07-20T09:40:14;2.75;;;0.93;;
80136;SDS011;69466;55.948;37.484;2023-07-20T09:42:41;3.72;;;0.85;;
80136;SDS011;69466;55.948;37.484;2023-07-20T09:45:08;5.05;;;1.10;;
80136;SDS011;69466;55.948;37.484;2023-07-20T09:47:38;6.57;;;1.20;;
80136;SDS011;69466;55.948;37.484;2023-07-20T09:50:04;4.97;;;1.20;;
80136;SDS011;69466;55.948;37.484;2023-07-20T09:52:39;3.63;;;0.98;;
80136;SDS011;69466;55.948;37.484;2023-07-20T09:55:06;5.38;;;1.67;;
80136;SDS011;69466;55.948;37.484;2023-07-20T09:57:33;5.40;;;1.20;;
80136;SDS011;69466;55.948;37.484;2023-07-20T10:00:00;4.10;;;1.20;;
80136;SDS011;69466;55.948;37.484;2023-07-20T10:02:37;5.18;;;1.20;;
80136;SDS011;69466;55.948;37.484;2023-07-20T10:05:07;2.67;;;1.02;;
80136;SDS011;69466;55.948;37.484;2023-07-20T10:07:39;3.35;;;1.17;;
80136;SDS011;69466;55.948;37.484;2023-07-20T10:12:39;6.10;;;1.55;;
80136;SDS011;69466;55.948;37.484;2023-07-20T10:17:33;4.32;;;1.73;;
80136;SDS011;69466;55.948;37.484;2023-07-20T10:20:02;3.28;;;1.00;;
80136;SDS011;69466;55.948;37.484;2023-07-20T10:22:33;3.20;;;1.10;;
80136;SDS011;69466;55.948;37.484;2023-07-20T10:25:01;3.67;;;1.17;;
80136;SDS011;69466;55.948;37.484;2023-07-20T10:27:29;3.72;;;1.00;;
80136;SDS011;69466;55.948;37.484;2023-07-20T10:29:55;2.88;;;1.15;;
80136;SDS011;69466;55.948;37.484;2023-07-20T10:32:24;3.75;;;1.15;;
80136;SDS011;69466;55.948;37.484;2023-07-20T10:34:52;3.97;;;1.35;;
80136;SDS011;69466;55.948;37.484;2023-07-20T10:42:57;3.55;;;1.10;;
80136;SDS011;69466;55.948;37.484;2023-07-20T10:48:20;3.60;;;1.17;;
80136;SDS011;69466;55.948;37.484;2023-07-20T10:53:36;5.07;;;1.40;;
80136;SDS011;69466;55.948;37.484;2023-07-20T10:56:05;5.88;;;1.27;;
80136;SDS011;69466;55.948;37.484;2023-07-20T10:58:44;7.30;;;1.30;;
80136;SDS011;69466;55.948;37.484;2023-07-20T11:01:16;3.00;;;1.27;;
80136;SDS011;69466;55.948;37.484;2023-07-20T11:03:43;4.93;;;1.50;;
80136;SDS011;69466;55.948;37.484;2023-07-20T11:08:55;4.43;;;1.30;;
80136;SDS011;69466;55.948;37.484;2023-07-20T11:11:29;3.40;;;1.30;;
80136;SDS011;69466;55.948;37.484;2023-07-20T11:14:02;3.67;;;1.15;;
80136;SDS011;69466;55.948;37.484;2023-07-20T11:16:48;7.45;;;1.40;;
80136;SDS011;69466;55.948;37.484;2023-07-20T11:19:17;5.53;;;1.90;;
80136;SDS011;69466;55.948;37.484;2023-07-20T11:21:54;7.22;;;1.25;;
80136;SDS011;69466;55.948;37.484;2023-07-20T11:24:23;3.90;;;1.17;;
80136;SDS011;69466;55.948;37.484;2023-07-20T11:26:53;3.65;;;1.27;;
80136;SDS011;69466;55.948;37.484;2023-07-20T11:29:20;4.38;;;1.30;;
80136;SDS011;69466;55.948;37.484;2023-07-20T11:31:49;4.95;;;1.35;;
80136;SDS011;69466;55.948;37.484;2023-07-20T11:34:17;4.07;;;1.25;;
80136;SDS011;69466;55.948;37.484;2023-07-20T11:36:45;4.07;;;1.20;;
80136;SDS011;69466;55.948;37.484;2023-07-20T11:39:18;4.88;;;1.88;;
80136;SDS011;69466;55.948;37.484;2023-07-20T11:41:48;4.63;;;1.88;;
80136;SDS011;69466;55.948;37.484;2023-07-20T11:44:19;3.67;;;1.10;;
80136;SDS011;69466;55.948;37.484;2023-07-20T11:46:59;6.38;;;1.70;;
80136;SDS011;69466;55.948;37.484;2023-07-20T11:49:36;3.40;;;1.30;;
80136;SDS011;69466;55.948;37.484;2023-07-20T11:52:07;6.75;;;1.63;;
80136;SDS011;69466;55.948;37.484;2023-07-20T11:54:35;5.88;;;1.65;;
80136;SDS011;69466;55.948;37.484;2023-07-20T11:57:03;3.15;;;1.20;;
80136;SDS011;69466;55.948;37.484;2023-07-20T11:59:31;4.00;;;1.20;;
80136;SDS011;69466;55.948;37.484;2023-07-20T12:02:01;2.78;;;0.90;;
80136;SDS011;69466;55.948;37.484;2023-07-20T12:04:29;2.80;;;0.93;;
80136;SDS011;69466;55.948;37.484;2023-07-20T12:06:57;3.80;;;1.10;;
80136;SDS011;69466;55.948;37.484;2023-07-20T12:09:23;4.60;;;0.98;;
80136;SDS011;69466;55.948;37.484;2023-07-20T12:11:50;3.42;;;0.95;;
80136;SDS011;69466;55.948;37.484;2023-07-20T12:14:16;2.80;;;0.95;;
80136;SDS011;69466;55.948;37.484;2023-07-20T12:16:42;3.38;;;0.90;;
80136;SDS011;69466;55.948;37.484;2023-07-20T12:19:10;4.75;;;1.40;;
80136;SDS011;69466;55.948;37.484;2023-07-20T12:21:40;3.97;;;1.02;;
80136;SDS011;69466;55.948;37.484;2023-07-20T12:24:08;4.32;;;1.08;;
80136;SDS011;69466;55.948;37.484;2023-07-20T12:26:37;4.15;;;1.13;;
80136;SDS011;69466;55.948;37.484;2023-07-20T12:29:03;3.42;;;1.63;;
80136;SDS011;69466;55.948;37.484;2023-07-20T12:31:30;3.60;;;1.00;;
80136;SDS011;69466;55.948;37.484;2023-07-20T12:33:56;4.97;;;1.65;;
80136;SDS011;69466;55.948;37.484;2023-07-20T12:36:23;4.40;;;1.58;;
80136;SDS011;69466;55.948;37.484;2023-07-20T12:38:50;4.20;;;1.20;;
80136;SDS011;69466;55.948;37.484;2023-07-20T12:41:16;5.05;;;1.48;;
80136;SDS011;69466;55.948;37.484;2023-07-20T12:43:43;3.10;;;1.10;;
80136;SDS011;69466;55.948;37.484;2023-07-20T12:46:11;4.72;;;1.42;;
80136;SDS011;69466;55.948;37.484;2023-07-20T12:48:39;4.15;;;1.25;;
80136;SDS011;69466;55.948;37.484;2023-07-20T12:51:09;2.88;;;1.20;;
80136;SDS011;69466;55.948;37.484;2023-07-20T12:53:37;3.13;;;1.13;;
80136;SDS011;69466;55.948;37.484;2023-07-20T12:56:03;3.00;;;1.00;;
80136;SDS011;69466;55.948;37.484;2023-07-20T12:58:29;2.70;;;0.80;;
80136;SDS011;69466;55.948;37.484;2023-07-20T13:00:55;3.33;;;1.02;;
80136;SDS011;69466;55.948;37.484;2023-07-20T13:03:21;2.15;;;0.82;;
80136;SDS011;69466;55.948;37.484;2023-07-20T13:05:47;3.13;;;1.13;;
80136;SDS011;69466;55.948;37.484;2023-07-20T13:08:14;3.20;;;1.20;;
80136;SDS011;69466;55.948;37.484;2023-07-20T13:10:41;4.35;;;1.10;;
80136;SDS011;69466;55.948;37.484;2023-07-20T13:13:07;4.30;;;1.75;;
80136;SDS011;69466;55.948;37.484;2023-07-20T13:15:40;3.67;;;0.90;;
80136;SDS011;69466;55.948;37.484;2023-07-20T13:18:09;4.75;;;1.75;;
80136;SDS011;69466;55.948;37.484;2023-07-20T13:20:36;3.22;;;1.38;;
80136;SDS011;69466;55.948;37.484;2023-07-20T13:23:01;5.07;;;1.13;;
80136;SDS011;69466;55.948;37.484;2023-07-20T13:25:27;6.22;;;1.50;;
80136;SDS011;69466;55.948;37.484;2023-07-20T13:27:54;4.78;;;1.20;;
80136;SDS011;69466;55.948;37.484;2023-07-20T13:30:19;3.15;;;1.10;;
80136;SDS011;69466;55.948;37.484;2023-07-20T13:32:47;4.28;;;1.08;;
80136;SDS011;69466;55.948;37.484;2023-07-20T13:35:13;4.43;;;1.30;;
80136;SDS011;69466;55.948;37.484;2023-07-20T13:37:39;3.63;;;1.52;;
80136;SDS011;69466;55.948;37.484;2023-07-20T13:40:05;5.85;;;1.00;;
80136;SDS011;69466;55.948;37.484;2023-07-20T13:42:33;3.22;;;1.10;;
80136;SDS011;69466;55.948;37.484;2023-07-20T13:45:00;4.88;;;1.52;;
80136;SDS011;69466;55.948;37.484;2023-07-20T13:47:26;3.50;;;1.25;;
80136;SDS011;69466;55.948;37.484;2023-07-20T13:49:54;6.00;;;1.50;;
80136;SDS011;69466;55.948;37.484;2023-07-20T13:52:21;3.63;;;1.20;;
80136;SDS011;69466;55.948;37.484;2023-07-20T13:54:48;4.38;;;1.20;;
80136;SDS011;69466;55.948;37.484;2023-07-20T13:57:14;4.75;;;1.13;;
80136;SDS011;69466;55.948;37.484;2023-07-20T13:59:40;3.50;;;1.33;;
80136;SDS011;69466;55.948;37.484;2023-07-20T14:02:08;3.17;;;1.20;;
80136;SDS011;69466;55.948;37.484;2023-07-20T14:04:33;4.82;;;1.63;;
80136;SDS011;69466;55.948;37.484;2023-07-20T14:06:59;4.53;;;1.42;;
80136;SDS011;69466;55.948;37.484;2023-07-20T14:09:25;3.65;;;1.33;;
80136;SDS011;69466;55.948;37.484;2023-07-20T14:11:51;4.28;;;1.10;;
80136;SDS011;69466;55.948;37.484;2023-07-20T14:14:17;3.80;;;1.15;;
80136;SDS011;69466;55.948;37.484;2023-07-20T14:16:43;4.90;;;1.05;;
80136;SDS011;69466;55.948;37.484;2023-07-20T14:19:09;4.93;;;1.45;;
80136;SDS011;69466;55.948;37.484;2023-07-20T14:21:35;3.55;;;1.00;;
80136;SDS011;69466;55.948;37.484;2023-07-20T14:24:01;3.70;;;1.20;;
80136;SDS011;69466;55.948;37.484;2023-07-20T14:26:27;3.22;;;1.00;;
80136;SDS011;69466;55.948;37.484;2023-07-20T14:28:53;3.35;;;1.15;;
80136;SDS011;69466;55.948;37.484;2023-07-20T14:31:19;3.42;;;1.05;;
80136;SDS011;69466;55.948;37.484;2023-07-20T14:33:45;4.28;;;1.30;;
80136;SDS011;69466;55.948;37.484;2023-07-20T14:36:11;4.70;;;1.50;;
80136;SDS011;69466;55.948;37.484;2023-07-20T14:38:37;3.63;;;1.30;;
80136;SDS011;69466;55.948;37.484;2023-07-20T14:41:03;2.95;;;1.27;;
80136;SDS011;69466;55.948;37.484;2023-07-20T14:43:31;3.95;;;1.30;;
80136;SDS011;69466;55.948;37.484;2023-07-20T14:45:57;2.90;;;1.10;;
80136;SDS011;69466;55.948;37.484;2023-07-20T14:48:23;3.75;;;1.40;;
80136;SDS011;69466;55.948;37.484;2023-07-20T14:50:49;5.13;;;1.30;;
80136;SDS011;69466;55.948;37.484;2023-07-20T14:53:14;3.85;;;1.40;;
80136;SDS011;69466;55.948;37.484;2023-07-20T14:55:41;5.60;;;1.65;;
80136;SDS011;69466;55.948;37.484;2023-07-20T14:58:07;3.28;;;1.30;;
80136;SDS011;69466;55.948;37.484;2023-07-20T15:00:33;4.10;;;1.33;;
80136;SDS011;69466;55.948;37.484;2023-07-20T15:03:02;4.72;;;1.30;;
80136;SDS011;69466;55.948;37.484;2023-07-20T15:05:28;4.85;;;1.60;;
80136;SDS011;69466;55.948;37.484;2023-07-20T15:07:56;3.72;;;1.33;;
80136;SDS011;69466;55.948;37.484;2023-07-20T15:10:21;3.42;;;1.13;;